sensor_id;sensor_type;location;lat;lon;timestamp;temperature;humidity
33994;DHT22;20673;48.980;8.138;2023-12-29T00:01:17;9.20;99.90
33994;DHT22;20673;48.980;8.138;2023-12-29T00:03:44;9.10;99.90
33994;DHT22;20673;48.980;8.138;2023-12-29T00:06:10;9.10;99.90
33994;DHT22;20673;48.980;8.138;2023-12-29T00:08:36;9.00;99.90
33994;DHT22;20673;48.980;8.138;2023-12-29T00:11:03;9.00;99.90
33994;DHT22;20673;48.980;8.138;2023-12-29T00:13:29;9.00;99.90
33994;DHT22;20673;48.980;8.138;2023-12-29T00:15:55;9.00;99.90
33994;DHT22;20673;48.980;8.138;2023-12-29T00:18:21;9.00;99.90
33994;DHT22;20673;48.980;8.138;2023-12-29T00:20:49;9.00;99.90
33994;DHT22;20673;48.980;8.138;2023-12-29T00:23:15;9.00;99.90
33994;DHT22;20673;48.980;8.138;2023-12-29T00:25:41;9.10;99.90
33994;DHT22;20673;48.980;8.138;2023-12-29T00:28:07;9.10;99.90
33994;DHT22;20673;48.980;8.138;2023-12-29T00:30:33;9.10;99.90
33994;DHT22;20673;48.980;8.138;2023-12-29T00:32:59;9.10;99.90
33994;DHT22;20673;48.980;8.138;2023-12-29T00:35:25;9.20;99.90
33994;DHT22;20673;48.980;8.138;2023-12-29T00:37:52;9.10;99.90
33994;DHT22;20673;48.980;8.138;2023-12-29T00:40:18;9.10;99.90
33994;DHT22;20673;48.980;8.138;2023-12-29T00:42:44;9.20;99.90
33994;DHT22;20673;48.980;8.138;2023-12-29T00:45:10;9.20;99.90
33994;DHT22;20673;48.980;8.138;2023-12-29T00:47:36;9.20;99.90
33994;DHT22;20673;48.980;8.138;2023-12-29T00:50:03;9.20;99.90
33994;DHT22;20673;48.980;8.138;2023-12-29T00:52:29;9.20;99.90
33994;DHT22;20673;48.980;8.138;2023-12-29T00:54:55;9.20;99.90
33994;DHT22;20673;48.980;8.138;2023-12-29T00:57:21;9.20;99.90
33994;DHT22;20673;48.980;8.138;2023-12-29T00:59:47;9.20;99.90
33994;DHT22;20673;48.980;8.138;2023-12-29T01:02:13;9.20;99.90
33994;DHT22;20673;48.980;8.138;2023-12-29T01:04:39;9.10;99.90
33994;DHT22;20673;48.980;8.138;2023-12-29T01:07:05;9.10;99.90
33994;DHT22;20673;48.980;8.138;2023-12-29T01:09:31;9.20;99.90
33994;DHT22;20673;48.980;8.138;2023-12-29T01:11:57;9.20;99.90
33994;DHT22;20673;48.980;8.138;2023-12-29T01:14:23;9.20;99.90
33994;DHT22;20673;48.980;8.138;2023-12-29T01:16:49;9.20;99.90
33994;DHT22;20673;48.980;8.138;2023-12-29T01:19:15;9.10;99.90
33994;DHT22;20673;48.980;8.138;2023-12-29T01:21:41;9.20;99.90
33994;DHT22;20673;48.980;8.138;2023-12-29T01:24:08;9.20;99.90
33994;DHT22;20673;48.980;8.138;2023-12-29T01:26:37;9.20;99.90
33994;DHT22;20673;48.980;8.138;2023-12-29T01:29:04;9.30;99.90
33994;DHT22;20673;48.980;8.138;2023-12-29T01:31:32;9.30;99.90
33994;DHT22;20673;48.980;8.138;2023-12-29T01:33:59;9.40;99.90
33994;DHT22;20673;48.980;8.138;2023-12-29T01:36:25;9.50;99.90
33994;DHT22;20673;48.980;8.138;2023-12-29T01:38:51;9.50;99.90
33994;DHT22;20673;48.980;8.138;2023-12-29T01:41:20;9.50;99.90
33994;DHT22;20673;48.980;8.138;2023-12-29T01:46:46;9.60;99.90
33994;DHT22;20673;48.980;8.138;2023-12-29T01:49:17;9.60;99.90
33994;DHT22;20673;48.980;8.138;2023-12-29T01:51:48;9.60;99.90
33994;DHT22;20673;48.980;8.138;2023-12-29T01:54:17;9.60;99.90
33994;DHT22;20673;48.980;8.138;2023-12-29T01:56:46;9.60;99.90
33994;DHT22;20673;48.980;8.138;2023-12-29T01:59:18;9.70;99.90
33994;DHT22;20673;48.980;8.138;2023-12-29T02:01:45;9.70;99.90
33994;DHT22;20673;48.980;8.138;2023-12-29T02:04:13;9.70;99.90
33994;DHT22;20673;48.980;8.138;2023-12-29T02:06:40;9.70;99.90
33994;DHT22;20673;48.980;8.138;2023-12-29T02:09:07;9.70;99.90
33994;DHT22;20673;48.980;8.138;2023-12-29T02:11:34;9.70;99.90
33994;DHT22;20673;48.980;8.138;2023-12-29T02:14:01;9.70;99.90
33994;DHT22;20673;48.980;8.138;2023-12-29T02:16:52;9.80;99.90
33994;DHT22;20673;48.980;8.138;2023-12-29T02:19:43;9.70;99.90
33994;DHT22;20673;48.980;8.138;2023-12-29T02:22:11;9.80;99.90
33994;DHT22;20673;48.980;8.138;2023-12-29T02:24:39;9.70;99.90
33994;DHT22;20673;48.980;8.138;2023-12-29T02:32:38;9.70;99.90
33994;DHT22;20673;48.980;8.138;2023-12-29T02:35:09;9.60;99.90
33994;DHT22;20673;48.980;8.138;2023-12-29T02:37:39;9.60;99.90
33994;DHT22;20673;48.980;8.138;2023-12-29T02:40:07;9.60;99.90
33994;DHT22;20673;48.980;8.138;2023-12-29T02:42:34;9.60;99.90
33994;DHT22;20673;48.980;8.138;2023-12-29T02:45:01;9.60;99.90
33994;DHT22;20673;48.980;8.138;2023-12-29T02:47:27;9.60;99.90
33994;DHT22;20673;48.980;8.138;2023-12-29T02:49:53;9.50;99.90
33994;DHT22;20673;48.980;8.138;2023-12-29T02:52:20;9.50;99.90
33994;DHT22;20673;48.980;8.138;2023-12-29T02:54:46;9.50;99.90
33994;DHT22;20673;48.980;8.138;2023-12-29T02:57:12;9.40;99.90
33994;DHT22;20673;48.980;8.138;2023-12-29T02:59:39;9.50;99.90
33994;DHT22;20673;48.980;8.138;2023-12-29T03:02:05;9.40;99.90
33994;DHT22;20673;48.980;8.138;2023-12-29T03:04:31;9.40;99.90
33994;DHT22;20673;48.980;8.138;2023-12-29T03:06:57;9.40;99.90
33994;DHT22;20673;48.980;8.138;2023-12-29T03:09:23;9.40;99.90
33994;DHT22;20673;48.980;8.138;2023-12-29T03:11:49;9.30;99.90
33994;DHT22;20673;48.980;8.138;2023-12-29T03:14:15;9.20;99.90
33994;DHT22;20673;48.980;8.138;2023-12-29T03:16:42;9.30;99.90
33994;DHT22;20673;48.980;8.138;2023-12-29T03:19:08;9.30;99.90
33994;DHT22;20673;48.980;8.138;2023-12-29T03:21:34;9.30;99.90
33994;DHT22;20673;48.980;8.138;2023-12-29T03:24:00;9.30;99.90
33994;DHT22;20673;48.980;8.138;2023-12-29T03:26:26;9.30;99.90
33994;DHT22;20673;48.980;8.138;2023-12-29T03:28:52;9.40;99.90
33994;DHT22;20673;48.980;8.138;2023-12-29T03:31:18;9.40;99.90
33994;DHT22;20673;48.980;8.138;2023-12-29T03:33:44;9.30;99.90
33994;DHT22;20673;48.980;8.138;2023-12-29T03:36:10;9.30;99.90
33994;DHT22;20673;48.980;8.138;2023-12-29T03:38:37;9.30;99.90
33994;DHT22;20673;48.980;8.138;2023-12-29T03:41:03;9.30;99.90
33994;DHT22;20673;48.980;8.138;2023-12-29T03:43:30;9.30;99.90
33994;DHT22;20673;48.980;8.138;2023-12-29T03:45:56;9.30;99.90
33994;DHT22;20673;48.980;8.138;2023-12-29T03:48:22;9.20;99.90
33994;DHT22;20673;48.980;8.138;2023-12-29T03:50:48;9.20;99.90
33994;DHT22;20673;48.980;8.138;2023-12-29T03:53:14;9.20;99.90
33994;DHT22;20673;48.980;8.138;2023-12-29T03:55:44;9.20;99.90
33994;DHT22;20673;48.980;8.138;2023-12-29T03:58:11;9.20;99.90
33994;DHT22;20673;48.980;8.138;2023-12-29T04:00:37;9.20;99.90
33994;DHT22;20673;48.980;8.138;2023-12-29T04:03:05;9.10;99.90
33994;DHT22;20673;48.980;8.138;2023-12-29T04:05:31;9.10;99.90
33994;DHT22;20673;48.980;8.138;2023-12-29T04:07:57;9.10;99.90
33994;DHT22;20673;48.980;8.138;2023-12-29T04:10:23;9.10;99.90
33994;DHT22;20673;48.980;8.138;2023-12-29T04:12:49;9.10;99.90
33994;DHT22;20673;48.980;8.138;2023-12-29T04:15:15;9.00;99.90
33994;DHT22;20673;48.980;8.138;2023-12-29T04:17:41;9.00;99.90
33994;DHT22;20673;48.980;8.138;2023-12-29T04:20:08;9.10;99.90
33994;DHT22;20673;48.980;8.138;2023-12-29T04:22:34;9.00;99.90
33994;DHT22;20673;48.980;8.138;2023-12-29T04:25:00;9.00;99.90
33994;DHT22;20673;48.980;8.138;2023-12-29T04:27:26;9.10;99.90
33994;DHT22;20673;48.980;8.138;2023-12-29T04:29:53;9.10;99.90
33994;DHT22;20673;48.980;8.138;2023-12-29T04:32:19;9.10;99.90
33994;DHT22;20673;48.980;8.138;2023-12-29T04:34:45;9.10;99.90
33994;DHT22;20673;48.980;8.138;2023-12-29T04:37:11;9.10;99.90
33994;DHT22;20673;48.980;8.138;2023-12-29T04:39:37;9.10;99.90
33994;DHT22;20673;48.980;8.138;2023-12-29T04:42:03;9.10;99.90
33994;DHT22;20673;48.980;8.138;2023-12-29T04:44:30;9.10;99.90
33994;DHT22;20673;48.980;8.138;2023-12-29T04:46:56;9.10;99.90
33994;DHT22;20673;48.980;8.138;2023-12-29T04:49:22;9.00;99.90
33994;DHT22;20673;48.980;8.138;2023-12-29T04:51:48;9.00;99.90
33994;DHT22;20673;48.980;8.138;2023-12-29T04:54:14;9.00;99.90
33994;DHT22;20673;48.980;8.138;2023-12-29T04:56:41;9.00;99.90
33994;DHT22;20673;48.980;8.138;2023-12-29T04:59:07;9.00;99.90
33994;DHT22;20673;48.980;8.138;2023-12-29T05:01:33;8.90;99.90
33994;DHT22;20673;48.980;8.138;2023-12-29T05:03:59;9.00;99.90
33994;DHT22;20673;48.980;8.138;2023-12-29T05:06:25;8.90;99.90
33994;DHT22;20673;48.980;8.138;2023-12-29T05:08:51;8.90;99.90
33994;DHT22;20673;48.980;8.138;2023-12-29T05:11:17;8.90;99.90
33994;DHT22;20673;48.980;8.138;2023-12-29T05:13:43;8.90;99.90
33994;DHT22;20673;48.980;8.138;2023-12-29T05:16:09;8.90;99.90
33994;DHT22;20673;48.980;8.138;2023-12-29T05:18:36;8.90;99.90
33994;DHT22;20673;48.980;8.138;2023-12-29T05:21:02;8.90;99.90
33994;DHT22;20673;48.980;8.138;2023-12-29T05:23:28;8.90;99.90
33994;DHT22;20673;48.980;8.138;2023-12-29T05:25:54;8.90;99.90
33994;DHT22;20673;48.980;8.138;2023-12-29T05:28:20;8.80;99.90
33994;DHT22;20673;48.980;8.138;2023-12-29T05:30:46;8.70;99.90
33994;DHT22;20673;48.980;8.138;2023-12-29T05:33:12;8.70;99.90
33994;DHT22;20673;48.980;8.138;2023-12-29T05:35:38;8.70;99.90
33994;DHT22;20673;48.980;8.138;2023-12-29T05:38:04;8.70;99.90
33994;DHT22;20673;48.980;8.138;2023-12-29T05:40:30;8.70;99.90
33994;DHT22;20673;48.980;8.138;2023-12-29T05:42:56;8.60;99.90
33994;DHT22;20673;48.980;8.138;2023-12-29T05:45:22;8.60;99.90
33994;DHT22;20673;48.980;8.138;2023-12-29T05:47:48;8.50;99.90
33994;DHT22;20673;48.980;8.138;2023-12-29T05:50:15;8.50;99.90
33994;DHT22;20673;48.980;8.138;2023-12-29T05:52:41;8.60;99.90
33994;DHT22;20673;48.980;8.138;2023-12-29T05:55:07;8.60;99.90
33994;DHT22;20673;48.980;8.138;2023-12-29T05:57:33;8.60;99.90
33994;DHT22;20673;48.980;8.138;2023-12-29T05:59:59;8.60;99.90
33994;DHT22;20673;48.980;8.138;2023-12-29T06:02:25;8.50;99.90
33994;DHT22;20673;48.980;8.138;2023-12-29T06:04:51;8.60;99.90
33994;DHT22;20673;48.980;8.138;2023-12-29T06:07:17;8.50;99.90
33994;DHT22;20673;48.980;8.138;2023-12-29T06:09:43;8.50;99.90
33994;DHT22;20673;48.980;8.138;2023-12-29T06:12:09;8.40;99.90
33994;DHT22;20673;48.980;8.138;2023-12-29T06:14:36;8.40;99.90
33994;DHT22;20673;48.980;8.138;2023-12-29T06:17:03;8.40;99.90
33994;DHT22;20673;48.980;8.138;2023-12-29T06:19:29;8.40;99.90
33994;DHT22;20673;48.980;8.138;2023-12-29T06:21:57;8.40;99.90
33994;DHT22;20673;48.980;8.138;2023-12-29T06:24:23;8.30;99.90
33994;DHT22;20673;48.980;8.138;2023-12-29T06:26:49;8.30;99.90
33994;DHT22;20673;48.980;8.138;2023-12-29T06:29:15;8.30;99.90
33994;DHT22;20673;48.980;8.138;2023-12-29T06:31:41;8.30;99.90
33994;DHT22;20673;48.980;8.138;2023-12-29T06:34:07;8.30;99.90
33994;DHT22;20673;48.980;8.138;2023-12-29T06:36:33;8.30;99.90
33994;DHT22;20673;48.980;8.138;2023-12-29T06:38:59;8.40;99.90
33994;DHT22;20673;48.980;8.138;2023-12-29T06:41:26;8.40;99.90
33994;DHT22;20673;48.980;8.138;2023-12-29T06:43:52;8.30;99.90
33994;DHT22;20673;48.980;8.138;2023-12-29T06:46:18;8.40;99.90
33994;DHT22;20673;48.980;8.138;2023-12-29T06:48:44;8.40;99.90
33994;DHT22;20673;48.980;8.138;2023-12-29T06:51:15;8.30;99.90
33994;DHT22;20673;48.980;8.138;2023-12-29T06:53:44;8.30;99.90
33994;DHT22;20673;48.980;8.138;2023-12-29T06:56:14;8.20;99.90
33994;DHT22;20673;48.980;8.138;2023-12-29T06:58:43;8.30;99.90
33994;DHT22;20673;48.980;8.138;2023-12-29T07:01:10;8.30;99.90
33994;DHT22;20673;48.980;8.138;2023-12-29T07:03:36;8.30;99.90
33994;DHT22;20673;48.980;8.138;2023-12-29T07:06:02;8.30;99.90
33994;DHT22;20673;48.980;8.138;2023-12-29T07:08:29;8.30;99.90
33994;DHT22;20673;48.980;8.138;2023-12-29T07:10:55;8.40;99.90
33994;DHT22;20673;48.980;8.138;2023-12-29T07:13:21;8.40;99.90
33994;DHT22;20673;48.980;8.138;2023-12-29T07:15:47;8.40;99.90
33994;DHT22;20673;48.980;8.138;2023-12-29T07:18:14;8.50;99.90
33994;DHT22;20673;48.980;8.138;2023-12-29T07:20:41;8.50;99.90
33994;DHT22;20673;48.980;8.138;2023-12-29T07:23:08;8.50;99.90
33994;DHT22;20673;48.980;8.138;2023-12-29T07:25:34;8.50;99.90
33994;DHT22;20673;48.980;8.138;2023-12-29T07:28:00;8.60;99.90
33994;DHT22;20673;48.980;8.138;2023-12-29T07:30:27;8.60;99.90
33994;DHT22;20673;48.980;8.138;2023-12-29T07:32:53;8.60;99.90
33994;DHT22;20673;48.980;8.138;2023-12-29T07:35:19;8.70;99.90
33994;DHT22;20673;48.980;8.138;2023-12-29T07:37:46;8.80;99.90
33994;DHT22;20673;48.980;8.138;2023-12-29T07:40:13;8.80;99.90
33994;DHT22;20673;48.980;8.138;2023-12-29T07:42:40;8.80;99.90
33994;DHT22;20673;48.980;8.138;2023-12-29T07:45:07;8.90;99.90
33994;DHT22;20673;48.980;8.138;2023-12-29T07:47:34;8.90;99.90
33994;DHT22;20673;48.980;8.138;2023-12-29T07:50:01;9.00;99.90
33994;DHT22;20673;48.980;8.138;2023-12-29T07:52:27;8.90;99.90
33994;DHT22;20673;48.980;8.138;2023-12-29T07:54:53;8.90;99.90
33994;DHT22;20673;48.980;8.138;2023-12-29T07:57:19;8.90;99.90
33994;DHT22;20673;48.980;8.138;2023-12-29T07:59:45;8.80;99.90
33994;DHT22;20673;48.980;8.138;2023-12-29T08:02:11;8.90;99.90
33994;DHT22;20673;48.980;8.138;2023-12-29T08:04:37;8.90;99.90
33994;DHT22;20673;48.980;8.138;2023-12-29T08:07:04;8.90;99.90
33994;DHT22;20673;48.980;8.138;2023-12-29T08:09:30;9.00;99.90
33994;DHT22;20673;48.980;8.138;2023-12-29T08:11:56;9.00;99.90
33994;DHT22;20673;48.980;8.138;2023-12-29T08:14:22;9.00;99.90
33994;DHT22;20673;48.980;8.138;2023-12-29T08:16:48;9.00;99.90
33994;DHT22;20673;48.980;8.138;2023-12-29T08:19:14;9.10;99.90
33994;DHT22;20673;48.980;8.138;2023-12-29T08:21:41;9.20;99.90
33994;DHT22;20673;48.980;8.138;2023-12-29T08:24:07;9.10;99.90
33994;DHT22;20673;48.980;8.138;2023-12-29T08:26:34;9.10;99.90
33994;DHT22;20673;48.980;8.138;2023-12-29T08:29:00;9.20;99.90
33994;DHT22;20673;48.980;8.138;2023-12-29T08:31:26;9.20;99.90
33994;DHT22;20673;48.980;8.138;2023-12-29T08:33:54;9.10;99.90
33994;DHT22;20673;48.980;8.138;2023-12-29T08:36:21;9.20;99.90
33994;DHT22;20673;48.980;8.138;2023-12-29T08:38:47;9.10;99.90
33994;DHT22;20673;48.980;8.138;2023-12-29T08:41:14;9.20;99.90
33994;DHT22;20673;48.980;8.138;2023-12-29T08:43:40;9.30;99.90
33994;DHT22;20673;48.980;8.138;2023-12-29T08:46:06;9.30;99.90
33994;DHT22;20673;48.980;8.138;2023-12-29T08:48:32;9.30;99.90
33994;DHT22;20673;48.980;8.138;2023-12-29T08:50:59;9.30;99.90
33994;DHT22;20673;48.980;8.138;2023-12-29T08:53:26;9.40;99.90
33994;DHT22;20673;48.980;8.138;2023-12-29T08:55:52;9.50;99.90
33994;DHT22;20673;48.980;8.138;2023-12-29T08:58:18;9.50;99.90
33994;DHT22;20673;48.980;8.138;2023-12-29T09:00:44;9.60;99.90
33994;DHT22;20673;48.980;8.138;2023-12-29T09:03:10;9.80;99.90
33994;DHT22;20673;48.980;8.138;2023-12-29T09:05:37;9.80;99.90
33994;DHT22;20673;48.980;8.138;2023-12-29T09:08:03;9.90;99.90
33994;DHT22;20673;48.980;8.138;2023-12-29T09:10:30;10.00;99.90
33994;DHT22;20673;48.980;8.138;2023-12-29T09:12:56;10.10;99.90
33994;DHT22;20673;48.980;8.138;2023-12-29T09:15:22;10.20;99.90
33994;DHT22;20673;48.980;8.138;2023-12-29T09:17:48;10.30;99.90
33994;DHT22;20673;48.980;8.138;2023-12-29T09:20:15;10.30;99.90
33994;DHT22;20673;48.980;8.138;2023-12-29T09:22:42;10.40;99.90
33994;DHT22;20673;48.980;8.138;2023-12-29T09:25:08;10.40;99.90
33994;DHT22;20673;48.980;8.138;2023-12-29T09:27:34;10.50;99.90
33994;DHT22;20673;48.980;8.138;2023-12-29T09:30:00;10.70;99.90
33994;DHT22;20673;48.980;8.138;2023-12-29T09:32:27;10.80;99.90
33994;DHT22;20673;48.980;8.138;2023-12-29T09:34:53;11.00;99.90
33994;DHT22;20673;48.980;8.138;2023-12-29T09:37:19;11.20;99.90
33994;DHT22;20673;48.980;8.138;2023-12-29T09:39:45;11.20;99.90
33994;DHT22;20673;48.980;8.138;2023-12-29T09:42:14;11.10;99.90
33994;DHT22;20673;48.980;8.138;2023-12-29T09:44:43;11.00;99.90
33994;DHT22;20673;48.980;8.138;2023-12-29T09:47:11;10.90;99.90
33994;DHT22;20673;48.980;8.138;2023-12-29T09:49:40;10.90;99.90
33994;DHT22;20673;48.980;8.138;2023-12-29T09:52:09;10.90;99.90
33994;DHT22;20673;48.980;8.138;2023-12-29T09:54:38;11.10;99.90
33994;DHT22;20673;48.980;8.138;2023-12-29T09:57:05;11.20;99.90
33994;DHT22;20673;48.980;8.138;2023-12-29T09:59:34;11.50;99.90
33994;DHT22;20673;48.980;8.138;2023-12-29T10:02:05;11.80;99.90
33994;DHT22;20673;48.980;8.138;2023-12-29T10:04:34;12.00;99.90
33994;DHT22;20673;48.980;8.138;2023-12-29T10:07:02;12.20;99.90
33994;DHT22;20673;48.980;8.138;2023-12-29T10:09:37;12.50;99.90
33994;DHT22;20673;48.980;8.138;2023-12-29T10:12:09;12.60;99.90
33994;DHT22;20673;48.980;8.138;2023-12-29T10:17:24;13.00;99.90
33994;DHT22;20673;48.980;8.138;2023-12-29T10:23:11;13.50;99.90
33994;DHT22;20673;48.980;8.138;2023-12-29T10:25:38;13.80;99.90
33994;DHT22;20673;48.980;8.138;2023-12-29T10:28:09;13.90;83.20
33994;DHT22;20673;48.980;8.138;2023-12-29T10:30:38;14.00;69.50
33994;DHT22;20673;48.980;8.138;2023-12-29T10:33:05;14.00;52.30
33994;DHT22;20673;48.980;8.138;2023-12-29T10:35:32;14.20;2.20
33994;DHT22;20673;48.980;8.138;2023-12-29T10:38:10;14.20;7.30
33994;DHT22;20673;48.980;8.138;2023-12-29T10:40:37;14.60;1.00
33994;DHT22;20673;48.980;8.138;2023-12-29T10:43:04;14.60;1.00
33994;DHT22;20673;48.980;8.138;2023-12-29T10:45:32;14.60;1.00
33994;DHT22;20673;48.980;8.138;2023-12-29T10:48:02;14.50;1.00
33994;DHT22;20673;48.980;8.138;2023-12-29T10:50:30;14.60;1.00
33994;DHT22;20673;48.980;8.138;2023-12-29T10:53:14;14.90;1.00
33994;DHT22;20673;48.980;8.138;2023-12-29T10:55:42;15.20;1.00
33994;DHT22;20673;48.980;8.138;2023-12-29T10:58:09;15.10;1.00
33994;DHT22;20673;48.980;8.138;2023-12-29T11:00:35;15.10;1.00
33994;DHT22;20673;48.980;8.138;2023-12-29T11:03:01;15.00;1.00
33994;DHT22;20673;48.980;8.138;2023-12-29T11:05:29;14.80;1.00
33994;DHT22;20673;48.980;8.138;2023-12-29T11:07:59;14.40;1.00
33994;DHT22;20673;48.980;8.138;2023-12-29T11:10:26;14.30;1.00
33994;DHT22;20673;48.980;8.138;2023-12-29T11:12:53;14.00;1.00
33994;DHT22;20673;48.980;8.138;2023-12-29T11:15:21;13.80;1.00
33994;DHT22;20673;48.980;8.138;2023-12-29T11:17:51;13.50;1.00
33994;DHT22;20673;48.980;8.138;2023-12-29T11:20:21;13.40;1.00
33994;DHT22;20673;48.980;8.138;2023-12-29T11:22:48;13.50;1.00
33994;DHT22;20673;48.980;8.138;2023-12-29T11:25:14;13.70;1.00
33994;DHT22;20673;48.980;8.138;2023-12-29T11:27:44;13.80;1.00
33994;DHT22;20673;48.980;8.138;2023-12-29T11:30:11;13.60;1.00
33994;DHT22;20673;48.980;8.138;2023-12-29T11:35:37;13.10;15.10
33994;DHT22;20673;48.980;8.138;2023-12-29T11:43:30;12.50;49.50
33994;DHT22;20673;48.980;8.138;2023-12-29T11:45:57;12.40;57.60
33994;DHT22;20673;48.980;8.138;2023-12-29T11:48:54;12.30;84.50
33994;DHT22;20673;48.980;8.138;2023-12-29T11:51:40;12.20;87.00
33994;DHT22;20673;48.980;8.138;2023-12-29T11:54:09;12.20;76.50
33994;DHT22;20673;48.980;8.138;2023-12-29T11:59:21;12.10;96.70
33994;DHT22;20673;48.980;8.138;2023-12-29T12:09:51;12.30;82.30
33994;DHT22;20673;48.980;8.138;2023-12-29T12:12:38;12.40;46.80
33994;DHT22;20673;48.980;8.138;2023-12-29T12:18:03;12.40;58.10
33994;DHT22;20673;48.980;8.138;2023-12-29T12:20:33;12.40;77.50
33994;DHT22;20673;48.980;8.138;2023-12-29T12:23:22;12.40;80.00
33994;DHT22;20673;48.980;8.138;2023-12-29T12:25:45;12.30;92.30
33994;DHT22;20673;48.980;8.138;2023-12-29T12:28:14;12.40;27.10
33994;DHT22;20673;48.980;8.138;2023-12-29T12:30:40;12.50;51.20
33994;DHT22;20673;48.980;8.138;2023-12-29T12:33:07;12.70;52.20
33994;DHT22;20673;48.980;8.138;2023-12-29T12:35:35;13.00;10.80
33994;DHT22;20673;48.980;8.138;2023-12-29T12:38:11;13.10;1.00
33994;DHT22;20673;48.980;8.138;2023-12-29T12:40:46;13.00;1.00
33994;DHT22;20673;48.980;8.138;2023-12-29T12:43:15;13.00;1.00
33994;DHT22;20673;48.980;8.138;2023-12-29T12:45:54;12.90;1.00
33994;DHT22;20673;48.980;8.138;2023-12-29T12:48:33;12.80;1.00
33994;DHT22;20673;48.980;8.138;2023-12-29T12:51:00;12.60;1.00
33994;DHT22;20673;48.980;8.138;2023-12-29T12:53:26;12.60;1.00
33994;DHT22;20673;48.980;8.138;2023-12-29T12:55:53;12.60;1.00
33994;DHT22;20673;48.980;8.138;2023-12-29T12:58:20;12.60;1.00
33994;DHT22;20673;48.980;8.138;2023-12-29T13:00:47;12.60;1.00
33994;DHT22;20673;48.980;8.138;2023-12-29T13:03:15;12.50;1.00
33994;DHT22;20673;48.980;8.138;2023-12-29T13:05:42;12.50;1.00
33994;DHT22;20673;48.980;8.138;2023-12-29T13:08:11;12.50;1.00
33994;DHT22;20673;48.980;8.138;2023-12-29T13:10:41;12.50;1.00
33994;DHT22;20673;48.980;8.138;2023-12-29T13:13:09;12.50;1.00
33994;DHT22;20673;48.980;8.138;2023-12-29T13:15:49;12.40;1.00
33994;DHT22;20673;48.980;8.138;2023-12-29T13:18:16;12.40;1.00
33994;DHT22;20673;48.980;8.138;2023-12-29T13:20:46;12.40;1.00
33994;DHT22;20673;48.980;8.138;2023-12-29T13:23:13;12.40;1.00
33994;DHT22;20673;48.980;8.138;2023-12-29T13:25:45;12.30;1.00
33994;DHT22;20673;48.980;8.138;2023-12-29T13:28:13;12.30;1.00
33994;DHT22;20673;48.980;8.138;2023-12-29T13:30:40;12.30;1.00
33994;DHT22;20673;48.980;8.138;2023-12-29T13:33:11;12.30;1.00
33994;DHT22;20673;48.980;8.138;2023-12-29T13:35:45;12.30;1.00
33994;DHT22;20673;48.980;8.138;2023-12-29T13:38:19;12.30;1.00
33994;DHT22;20673;48.980;8.138;2023-12-29T13:40:56;12.30;1.00
33994;DHT22;20673;48.980;8.138;2023-12-29T13:43:28;12.30;1.00
33994;DHT22;20673;48.980;8.138;2023-12-29T13:45:56;12.30;1.00
33994;DHT22;20673;48.980;8.138;2023-12-29T13:48:23;12.20;1.00
33994;DHT22;20673;48.980;8.138;2023-12-29T13:50:49;12.20;1.00
33994;DHT22;20673;48.980;8.138;2023-12-29T13:53:20;12.20;1.00
33994;DHT22;20673;48.980;8.138;2023-12-29T13:55:48;12.10;1.00
33994;DHT22;20673;48.980;8.138;2023-12-29T13:58:16;12.00;1.00
33994;DHT22;20673;48.980;8.138;2023-12-29T14:00:46;12.00;1.00
33994;DHT22;20673;48.980;8.138;2023-12-29T14:03:23;12.00;1.00
33994;DHT22;20673;48.980;8.138;2023-12-29T14:06:04;12.00;1.00
33994;DHT22;20673;48.980;8.138;2023-12-29T14:08:41;11.90;1.00
33994;DHT22;20673;48.980;8.138;2023-12-29T14:11:12;11.90;1.00
33994;DHT22;20673;48.980;8.138;2023-12-29T14:13:42;11.80;1.00
33994;DHT22;20673;48.980;8.138;2023-12-29T14:16:10;11.80;1.00
33994;DHT22;20673;48.980;8.138;2023-12-29T14:21:27;11.80;1.00
33994;DHT22;20673;48.980;8.138;2023-12-29T14:24:08;11.80;1.00
33994;DHT22;20673;48.980;8.138;2023-12-29T14:26:40;11.80;1.00
33994;DHT22;20673;48.980;8.138;2023-12-29T14:29:12;11.80;1.00
33994;DHT22;20673;48.980;8.138;2023-12-29T14:31:42;11.70;1.00
33994;DHT22;20673;48.980;8.138;2023-12-29T14:34:11;11.70;1.00
33994;DHT22;20673;48.980;8.138;2023-12-29T14:36:39;11.70;1.00
33994;DHT22;20673;48.980;8.138;2023-12-29T14:39:07;11.70;1.00
33994;DHT22;20673;48.980;8.138;2023-12-29T14:41:35;11.60;1.00
33994;DHT22;20673;48.980;8.138;2023-12-29T14:44:02;11.70;1.00
33994;DHT22;20673;48.980;8.138;2023-12-29T14:46:28;11.60;1.00
33994;DHT22;20673;48.980;8.138;2023-12-29T14:48:57;11.70;1.00
33994;DHT22;20673;48.980;8.138;2023-12-29T14:51:29;11.70;1.00
33994;DHT22;20673;48.980;8.138;2023-12-29T14:53:55;11.70;1.00
33994;DHT22;20673;48.980;8.138;2023-12-29T14:56:24;11.60;1.00
33994;DHT22;20673;48.980;8.138;2023-12-29T14:58:53;11.60;1.00
33994;DHT22;20673;48.980;8.138;2023-12-29T15:01:23;11.60;1.00
33994;DHT22;20673;48.980;8.138;2023-12-29T15:03:54;11.50;1.00
33994;DHT22;20673;48.980;8.138;2023-12-29T15:06:23;11.40;1.00
33994;DHT22;20673;48.980;8.138;2023-12-29T15:08:52;11.40;1.00
33994;DHT22;20673;48.980;8.138;2023-12-29T15:11:19;11.30;1.00
33994;DHT22;20673;48.980;8.138;2023-12-29T15:13:45;11.30;1.00
33994;DHT22;20673;48.980;8.138;2023-12-29T15:16:11;11.30;1.00
33994;DHT22;20673;48.980;8.138;2023-12-29T15:18:37;11.20;1.00
33994;DHT22;20673;48.980;8.138;2023-12-29T15:21:04;11.20;1.00
33994;DHT22;20673;48.980;8.138;2023-12-29T15:23:31;11.10;1.00
33994;DHT22;20673;48.980;8.138;2023-12-29T15:25:57;11.20;1.00
33994;DHT22;20673;48.980;8.138;2023-12-29T15:28:24;11.10;3.90
33994;DHT22;20673;48.980;8.138;2023-12-29T15:30:50;11.10;13.30
33994;DHT22;20673;48.980;8.138;2023-12-29T15:33:16;11.00;24.80
33994;DHT22;20673;48.980;8.138;2023-12-29T15:35:44;11.00;22.80
33994;DHT22;20673;48.980;8.138;2023-12-29T15:38:16;11.00;11.50
33994;DHT22;20673;48.980;8.138;2023-12-29T15:40:42;11.00;5.30
33994;DHT22;20673;48.980;8.138;2023-12-29T15:43:11;11.00;5.40
33994;DHT22;20673;48.980;8.138;2023-12-29T15:45:42;11.00;2.90
33994;DHT22;20673;48.980;8.138;2023-12-29T15:48:09;11.00;5.40
33994;DHT22;20673;48.980;8.138;2023-12-29T15:50:39;11.00;5.00
33994;DHT22;20673;48.980;8.138;2023-12-29T15:53:05;11.00;1.10
33994;DHT22;20673;48.980;8.138;2023-12-29T15:55:31;11.00;1.00
33994;DHT22;20673;48.980;8.138;2023-12-29T15:57:57;11.00;1.00
33994;DHT22;20673;48.980;8.138;2023-12-29T16:00:24;11.00;1.10
33994;DHT22;20673;48.980;8.138;2023-12-29T16:02:50;11.00;1.00
33994;DHT22;20673;48.980;8.138;2023-12-29T16:05:16;11.00;1.00
33994;DHT22;20673;48.980;8.138;2023-12-29T16:07:43;11.00;1.00
33994;DHT22;20673;48.980;8.138;2023-12-29T16:10:09;10.90;1.00
33994;DHT22;20673;48.980;8.138;2023-12-29T16:12:35;11.00;1.00
33994;DHT22;20673;48.980;8.138;2023-12-29T16:15:02;11.00;1.00
33994;DHT22;20673;48.980;8.138;2023-12-29T16:17:29;10.90;1.00
33994;DHT22;20673;48.980;8.138;2023-12-29T16:19:55;10.80;1.00
33994;DHT22;20673;48.980;8.138;2023-12-29T16:22:21;10.80;1.00
33994;DHT22;20673;48.980;8.138;2023-12-29T16:24:47;10.80;1.00
33994;DHT22;20673;48.980;8.138;2023-12-29T16:27:15;10.90;1.00